Terminal Aerodrome Forecast
Issued by NWS Tuscon, AZ

Home | Current Version | Previous Version | Text Only | Print | Product List | Glossary On
Versions: 1 2 3 4 5 6 7 8 9 10 11 12
000
FTUS45 KTWC 242300
TAFTUS
TAF
KTUS 242325Z 2500/2524 29011G17KT P6SM BKN250
     FM250200 23007KT P6SM SKC
     FM250700 14007KT P6SM SKC
     FM251600 21012KT P6SM SCT250
     FM251900 23018G30KT P6SM SCT250=

USA.gov is the U.S. government's official web portal to all federal, state and local government web resources and services.